createdAt,value
2018-07-06T00:01:11.589Z,72.30
2018-07-06T00:04:02.653Z,71.50
2018-07-06T00:06:51.199Z,71.70
2018-07-06T00:09:42.085Z,72.20
2018-07-06T00:12:30.995Z,71.50
2018-07-06T00:15:22.588Z,72.80
2018-07-06T00:18:12.999Z,75.10
2018-07-06T00:21:04.590Z,81.70
2018-07-06T00:23:56.608Z,81.90
2018-07-06T00:29:43.162Z,89.10
2018-07-06T00:32:37.748Z,91.10
2018-07-06T00:35:28.355Z,91.90
2018-07-06T00:38:20.024Z,92.20
2018-07-06T00:41:11.705Z,92.40
2018-07-06T00:46:54.688Z,91.50
2018-07-06T00:49:48.925Z,91.10
2018-07-06T00:52:39.388Z,91.10
2018-07-06T00:55:30.639Z,92.10
2018-07-06T00:58:22.212Z,91.90
2018-07-06T01:01:13.610Z,91.90
2018-07-06T01:04:04.816Z,91.80
2018-07-06T01:06:55.765Z,92.10
2018-07-06T01:09:47.278Z,91.60
2018-07-06T01:12:38.834Z,91.10
2018-07-06T01:15:29.512Z,90.50
2018-07-06T01:18:22.737Z,90.60
2018-07-06T01:21:15.229Z,90.30
2018-07-06T01:24:04.955Z,90.00
2018-07-06T01:26:55.627Z,90.00
2018-07-06T01:29:46.179Z,88.70
2018-07-06T01:32:26.367Z,88.10
2018-07-06T01:35:06.726Z,88.70
2018-07-06T01:37:59.467Z,89.30
2018-07-06T01:40:51.902Z,88.30
2018-07-06T01:43:42.034Z,89.40
2018-07-06T01:46:33.414Z,90.30
2018-07-06T01:49:23.932Z,90.30
2018-07-06T01:52:16.679Z,90.30
2018-07-06T01:55:05.342Z,90.70
2018-07-06T01:57:56.083Z,91.20
2018-07-06T02:00:44.367Z,91.50
2018-07-06T02:03:35.956Z,91.60
2018-07-06T02:06:25.920Z,92.30
2018-07-06T02:09:18.149Z,92.60
2018-07-06T02:12:09.943Z,93.20
2018-07-06T02:15:01.012Z,93.40
2018-07-06T02:17:51.642Z,93.40
2018-07-06T02:20:44.119Z,94.30
2018-07-06T02:23:34.942Z,94.80
2018-07-06T02:26:26.588Z,95.00
2018-07-06T02:29:16.248Z,95.00
2018-07-06T02:32:08.024Z,95.20
2018-07-06T02:34:57.672Z,95.60
2018-07-06T02:37:50.994Z,96.00
2018-07-06T02:40:44.479Z,95.30
2018-07-06T02:43:36.293Z,95.40
2018-07-06T02:46:16.358Z,95.80
2018-07-06T02:48:56.615Z,96.30
2018-07-06T02:51:36.762Z,96.50
2018-07-06T02:54:17.126Z,96.10
2018-07-06T02:56:57.475Z,96.60
2018-07-06T02:59:37.833Z,96.80
2018-07-06T03:02:18.091Z,96.90
2018-07-06T03:04:58.346Z,96.80
2018-07-06T03:07:38.396Z,97.30
2018-07-06T03:10:19.670Z,97.90
2018-07-06T03:12:59.926Z,98.50
2018-07-06T03:15:40.285Z,99.60
2018-07-06T03:18:20.332Z,99.90
2018-07-06T03:21:00.587Z,99.90
2018-07-06T03:23:40.842Z,99.90
2018-07-06T03:26:21.813Z,99.90
2018-07-06T03:29:02.272Z,99.90
2018-07-06T03:31:42.594Z,99.90
2018-07-06T03:34:23.086Z,99.90
2018-07-06T03:37:03.039Z,99.90
2018-07-06T03:39:42.819Z,99.90
2018-07-06T03:42:22.661Z,99.90
2018-07-06T03:45:02.512Z,99.90
2018-07-06T03:47:42.324Z,99.90
2018-07-06T03:50:22.108Z,99.90
2018-07-06T03:53:02.211Z,99.90
2018-07-06T03:55:42.464Z,99.90
2018-07-06T03:58:22.823Z,99.90
2018-07-06T04:01:03.280Z,99.90
2018-07-06T04:03:43.429Z,99.90
2018-07-06T04:06:23.412Z,99.90
2018-07-06T04:09:04.143Z,99.90
2018-07-06T04:11:44.294Z,99.90
2018-07-06T04:14:25.166Z,99.90
2018-07-06T04:17:05.317Z,99.90
2018-07-06T04:19:45.469Z,99.90
2018-07-06T04:22:25.788Z,99.90
2018-07-06T04:25:06.287Z,99.90
2018-07-06T04:27:46.540Z,99.90
2018-07-06T04:30:26.794Z,99.90
2018-07-06T04:33:06.945Z,99.90
2018-07-06T04:35:47.897Z,99.90
2018-07-06T04:38:27.870Z,99.90
2018-07-06T04:41:08.836Z,99.90
2018-07-06T04:43:48.885Z,99.90
2018-07-06T04:46:29.037Z,99.90
2018-07-06T04:49:09.292Z,99.90
2018-07-06T04:51:49.548Z,99.90
2018-07-06T04:54:29.402Z,99.90
2018-07-06T04:57:09.647Z,99.90
2018-07-06T04:59:49.962Z,99.90
2018-07-06T05:02:29.825Z,99.90
2018-07-06T05:05:09.748Z,99.10
2018-07-06T05:07:49.897Z,98.40
2018-07-06T05:10:30.305Z,97.70
2018-07-06T05:13:10.337Z,97.30
2018-07-06T05:15:50.306Z,95.10
2018-07-06T05:18:30.763Z,93.30
2018-07-06T05:21:10.914Z,90.90
2018-07-06T05:23:51.064Z,84.50
2018-07-06T05:26:31.281Z,79.50
2018-07-06T05:29:11.644Z,77.90
2018-07-06T05:31:51.712Z,70.20
2018-07-06T05:34:31.739Z,67.40
2018-07-06T05:37:11.754Z,67.60
2018-07-06T05:39:52.082Z,61.80
2018-07-06T05:42:32.136Z,59.30
2018-07-06T05:45:12.282Z,57.80
2018-07-06T05:47:52.293Z,59.10
2018-07-06T05:50:32.688Z,58.50
2018-07-06T05:53:12.737Z,54.00
2018-07-06T05:55:52.890Z,52.70
2018-07-06T05:58:33.248Z,50.70
2018-07-06T06:01:13.402Z,46.40
2018-07-06T06:03:53.653Z,41.10
2018-07-06T06:06:33.497Z,39.60
2018-07-06T06:09:01.079Z,38.30
2018-07-06T06:11:30.025Z,33.60
2018-07-06T06:13:58.848Z,30.30
2018-07-06T06:16:27.698Z,29.90
2018-07-06T06:18:56.645Z,28.80
2018-07-06T06:21:25.668Z,28.30
2018-07-06T06:23:54.883Z,30.10
2018-07-06T06:26:30.530Z,31.10
2018-07-06T06:28:59.855Z,28.40
2018-07-06T06:31:29.946Z,24.60
2018-07-06T06:34:00.784Z,23.30
2018-07-06T06:36:30.272Z,22.30
2018-07-06T06:39:00.719Z,21.30
2018-07-06T06:41:29.960Z,21.00
2018-07-06T06:46:28.757Z,19.40
2018-07-06T06:48:57.809Z,19.40
2018-07-06T06:51:27.106Z,19.90
2018-07-06T06:53:56.365Z,19.30
2018-07-06T06:56:25.498Z,19.20
2018-07-06T06:58:54.807Z,20.00
2018-07-06T07:01:23.992Z,19.30
2018-07-06T07:03:53.827Z,19.00
2018-07-06T07:06:22.841Z,18.60
2018-07-06T07:08:52.090Z,18.70
2018-07-06T07:11:21.244Z,20.60
2018-07-06T07:13:50.393Z,21.60
2018-07-06T07:16:19.636Z,20.90
2018-07-06T07:18:48.803Z,19.80
2018-07-06T07:21:17.739Z,19.00
2018-07-06T07:23:46.657Z,18.80
2018-07-06T07:26:15.613Z,19.20
2018-07-06T07:28:44.544Z,18.10
2018-07-06T07:31:13.421Z,18.80
2018-07-06T07:33:42.378Z,19.20
2018-07-06T07:36:11.277Z,19.40
2018-07-06T07:38:40.564Z,19.60
2018-07-06T07:41:09.418Z,21.90
2018-07-06T07:46:06.980Z,20.10
2018-07-06T07:48:36.141Z,19.60
2018-07-06T07:51:16.603Z,19.50
2018-07-06T07:53:56.651Z,18.40
2018-07-06T07:56:25.914Z,18.00
2018-07-06T07:58:55.412Z,18.80
2018-07-06T08:01:25.442Z,20.60
2018-07-06T08:03:54.486Z,21.60
2018-07-06T08:06:23.721Z,23.20
2018-07-06T08:08:52.786Z,23.70
2018-07-06T08:11:21.919Z,25.70
2018-07-06T08:13:51.068Z,26.40
2018-07-06T08:16:20.228Z,26.50
2018-07-06T08:18:49.369Z,24.30
2018-07-06T08:21:18.473Z,22.60
2018-07-06T08:23:48.122Z,20.90
2018-07-06T08:26:17.357Z,19.90
2018-07-06T08:28:46.966Z,21.10
2018-07-06T08:31:16.101Z,21.50
2018-07-06T08:33:56.483Z,22.20
2018-07-06T08:37:45.540Z,23.70
2018-07-06T08:40:14.648Z,25.80
2018-07-06T08:42:45.024Z,26.90
2018-07-06T08:45:14.270Z,27.20
2018-07-06T08:47:43.868Z,27.60
2018-07-06T08:50:13.121Z,28.00
2018-07-06T08:52:43.356Z,28.10
2018-07-06T08:55:12.365Z,26.00
2018-07-06T08:57:42.381Z,22.90
2018-07-06T09:00:12.207Z,20.30
2018-07-06T09:02:41.678Z,19.90
2018-07-06T09:05:11.706Z,21.60
2018-07-06T09:07:40.803Z,23.00
2018-07-06T09:10:09.709Z,24.10
2018-07-06T09:12:39.161Z,26.30
2018-07-06T09:15:08.679Z,25.20
2018-07-06T09:17:37.660Z,22.00
2018-07-06T09:20:06.885Z,21.20
2018-07-06T09:22:35.837Z,20.70
2018-07-06T09:25:06.269Z,20.30
2018-07-06T09:27:35.459Z,19.30
2018-07-06T09:30:04.734Z,20.10
2018-07-06T09:32:33.954Z,20.30
2018-07-06T09:35:03.512Z,20.30
2018-07-06T09:37:32.438Z,20.30
2018-07-06T09:40:01.558Z,20.20
2018-07-06T09:42:31.305Z,21.70
2018-07-06T09:45:00.348Z,23.10
2018-07-06T09:47:29.504Z,26.60
2018-07-06T09:49:58.424Z,29.00
2018-07-06T09:52:27.277Z,28.90
2018-07-06T09:54:56.153Z,29.20
2018-07-06T09:57:25.051Z,29.00
2018-07-06T09:59:54.072Z,29.00
2018-07-06T10:02:22.919Z,28.20
2018-07-06T10:04:51.866Z,27.80
2018-07-06T10:07:20.975Z,28.50
2018-07-06T10:09:50.197Z,29.20
2018-07-06T10:14:48.505Z,31.10
2018-07-06T10:17:17.712Z,32.80
2018-07-06T10:19:47.644Z,33.30
2018-07-06T10:22:17.191Z,32.30
2018-07-06T10:24:46.268Z,32.30
2018-07-06T10:27:15.452Z,32.20
2018-07-06T10:29:51.451Z,31.50
2018-07-06T10:32:21.775Z,30.90
2018-07-06T10:34:50.873Z,32.10
2018-07-06T10:37:20.520Z,31.80
2018-07-06T10:39:50.222Z,29.60
2018-07-06T10:42:19.304Z,29.60
2018-07-06T10:44:48.391Z,28.90
2018-07-06T10:47:17.585Z,29.10
2018-07-06T10:49:46.788Z,28.60
2018-07-06T10:52:16.429Z,29.40
2018-07-06T10:54:47.467Z,30.90
2018-07-06T10:57:16.591Z,30.00
2018-07-06T10:59:45.517Z,30.00
2018-07-06T11:02:14.568Z,31.00
2018-07-06T11:04:43.457Z,32.20
2018-07-06T11:07:12.337Z,30.50
2018-07-06T11:09:41.176Z,29.50
2018-07-06T11:12:10.066Z,28.70
2018-07-06T11:14:38.960Z,28.90
2018-07-06T11:17:07.843Z,29.60
2018-07-06T11:19:36.689Z,28.40
2018-07-06T11:22:05.849Z,28.50
2018-07-06T11:24:35.043Z,28.60
2018-07-06T11:27:04.404Z,28.80
2018-07-06T11:29:34.255Z,28.60
2018-07-06T11:32:03.469Z,28.50
2018-07-06T11:34:32.698Z,27.40
2018-07-06T11:37:01.649Z,27.50
2018-07-06T11:39:30.636Z,27.10
2018-07-06T11:41:59.745Z,27.90
2018-07-06T11:44:28.727Z,28.80
2018-07-06T11:46:57.849Z,29.00
2018-07-06T11:49:26.766Z,28.40
2018-07-06T11:51:56.605Z,28.20
2018-07-06T11:54:25.596Z,27.80
2018-07-06T11:56:55.324Z,27.90
2018-07-06T11:59:24.472Z,27.70
2018-07-06T12:01:53.601Z,28.00
2018-07-06T12:04:22.887Z,29.10
2018-07-06T12:06:51.941Z,30.60
2018-07-06T12:09:21.056Z,31.60
2018-07-06T12:11:50.239Z,31.00
2018-07-06T12:14:19.403Z,31.10
2018-07-06T12:16:48.311Z,30.50
2018-07-06T12:19:17.168Z,29.60
2018-07-06T12:21:46.056Z,30.10
2018-07-06T12:24:14.916Z,30.00
2018-07-06T12:26:43.833Z,31.10
2018-07-06T12:29:12.714Z,31.50
2018-07-06T12:31:41.628Z,31.30
2018-07-06T12:34:10.493Z,31.40
2018-07-06T12:36:39.634Z,32.40
2018-07-06T12:39:08.822Z,33.10
2018-07-06T12:41:38.176Z,33.30
2018-07-06T12:44:07.313Z,31.60
2018-07-06T12:46:36.445Z,30.20
2018-07-06T12:49:05.808Z,29.00
2018-07-06T12:51:34.905Z,29.80
2018-07-06T12:54:04.728Z,29.00
2018-07-06T12:56:33.892Z,30.50
2018-07-06T13:01:31.969Z,30.80
2018-07-06T13:06:29.564Z,30.90
2018-07-06T13:08:58.620Z,30.80
2018-07-06T13:11:27.773Z,30.20
2018-07-06T13:13:56.915Z,30.70
2018-07-06T13:16:25.939Z,30.50
2018-07-06T13:18:54.995Z,29.60
2018-07-06T13:21:24.155Z,30.30
2018-07-06T13:23:53.050Z,29.80
2018-07-06T13:26:22.933Z,30.30
2018-07-06T13:28:52.121Z,32.10
2018-07-06T13:31:21.055Z,30.80
2018-07-06T13:33:49.978Z,30.10
2018-07-06T13:36:18.812Z,29.60
2018-07-06T13:38:47.682Z,28.90
2018-07-06T13:41:16.542Z,28.70
2018-07-06T13:43:45.432Z,28.80
2018-07-06T13:46:14.306Z,27.80
2018-07-06T13:48:43.189Z,27.20
2018-07-06T13:51:12.293Z,27.40
2018-07-06T13:53:41.491Z,27.60
2018-07-06T13:56:10.744Z,27.90
2018-07-06T13:58:39.897Z,27.80
2018-07-06T14:01:08.826Z,28.20
2018-07-06T14:03:38.017Z,28.20
2018-07-06T14:06:07.289Z,28.60
2018-07-06T14:08:36.485Z,28.90
2018-07-06T14:11:05.779Z,29.40
2018-07-06T14:13:35.075Z,29.10
2018-07-06T14:16:04.256Z,29.20
2018-07-06T14:18:33.402Z,29.70
2018-07-06T14:21:02.657Z,29.80
2018-07-06T14:23:31.852Z,29.60
2018-07-06T14:26:00.949Z,29.70
2018-07-06T14:28:30.113Z,30.60
2018-07-06T14:33:27.985Z,30.70
2018-07-06T14:35:56.945Z,31.20
2018-07-06T14:38:25.946Z,31.30
2018-07-06T14:40:55.092Z,31.20
2018-07-06T14:43:24.091Z,30.80
2018-07-06T14:45:54.202Z,30.20
2018-07-06T14:48:23.103Z,30.00
2018-07-06T14:50:51.928Z,29.60
2018-07-06T14:53:20.834Z,29.60
2018-07-06T14:55:49.680Z,29.30
2018-07-06T14:58:18.561Z,29.50
2018-07-06T15:00:47.400Z,29.40
2018-07-06T15:03:16.558Z,28.80
2018-07-06T15:05:45.688Z,29.00
2018-07-06T15:08:15.260Z,29.20
2018-07-06T15:10:44.537Z,30.40
2018-07-06T15:13:14.688Z,30.50
2018-07-06T15:15:43.887Z,30.90
2018-07-06T15:18:12.999Z,30.70
2018-07-06T15:20:42.165Z,30.80
2018-07-06T15:23:11.172Z,30.10
2018-07-06T15:25:40.356Z,30.80
2018-07-06T15:30:38.133Z,31.00
2018-07-06T15:33:07.313Z,31.50
2018-07-06T15:35:36.479Z,32.00
2018-07-06T15:38:20.246Z,32.40
2018-07-06T15:40:49.437Z,32.30
2018-07-06T15:43:19.660Z,32.10
2018-07-06T15:45:49.787Z,31.90
2018-07-06T15:48:18.871Z,32.10
2018-07-06T15:50:48.168Z,32.20
2018-07-06T15:53:17.776Z,32.80
2018-07-06T15:55:46.904Z,32.60
2018-07-06T16:00:44.803Z,33.20
2018-07-06T16:03:13.686Z,33.40
2018-07-06T16:05:42.796Z,33.50
2018-07-06T16:08:11.697Z,33.90
2018-07-06T16:10:40.601Z,32.80
2018-07-06T16:13:09.444Z,32.80
2018-07-06T16:15:38.589Z,33.30
2018-07-06T16:18:07.745Z,34.00
2018-07-06T16:20:36.989Z,34.00
2018-07-06T16:23:06.205Z,34.00
2018-07-06T16:25:35.235Z,34.10
2018-07-06T16:28:04.579Z,34.10
2018-07-06T16:30:34.476Z,33.40
2018-07-06T16:33:04.224Z,33.90
2018-07-06T16:35:33.241Z,33.50
2018-07-06T16:38:02.321Z,34.00
2018-07-06T16:40:31.337Z,34.20
2018-07-06T16:43:00.530Z,34.00
2018-07-06T16:45:30.491Z,33.90
2018-07-06T16:47:59.773Z,34.50
2018-07-06T16:50:29.663Z,34.70
2018-07-06T16:52:58.940Z,35.30
2018-07-06T16:55:28.292Z,35.50
2018-07-06T16:57:57.564Z,35.80
2018-07-06T17:00:26.792Z,36.20
2018-07-06T17:02:55.940Z,36.00
2018-07-06T17:05:26.007Z,37.30
2018-07-06T17:07:55.136Z,37.10
2018-07-06T17:10:24.378Z,37.10
2018-07-06T17:12:54.414Z,36.80
2018-07-06T17:15:23.655Z,37.40
2018-07-06T17:17:52.517Z,38.00
2018-07-06T17:20:21.425Z,37.40
2018-07-06T17:22:50.375Z,37.50
2018-07-06T17:25:19.289Z,37.60
2018-07-06T17:27:48.245Z,37.50
2018-07-06T17:30:17.193Z,37.50
2018-07-06T17:32:46.036Z,37.10
2018-07-06T17:37:43.448Z,37.40
2018-07-06T17:40:12.317Z,38.10
2018-07-06T17:42:41.347Z,38.40
2018-07-06T17:45:10.547Z,38.80
2018-07-06T17:47:39.607Z,39.10
2018-07-06T17:50:08.627Z,39.40
2018-07-06T17:52:41.156Z,39.80
2018-07-06T17:55:10.272Z,40.30
2018-07-06T17:57:39.348Z,40.30
2018-07-06T18:00:09.303Z,40.00
2018-07-06T18:02:38.833Z,40.10
2018-07-06T18:05:09.910Z,40.50
2018-07-06T18:07:39.260Z,40.40
2018-07-06T18:10:08.839Z,40.30
2018-07-06T18:12:38.076Z,40.70
2018-07-06T18:15:09.044Z,41.60
2018-07-06T18:17:39.647Z,42.30
2018-07-06T18:20:09.620Z,42.70
2018-07-06T18:22:39.470Z,43.30
2018-07-06T18:25:08.637Z,43.40
2018-07-06T18:27:38.639Z,44.10
2018-07-06T18:30:08.759Z,44.50
2018-07-06T18:32:37.922Z,45.00
2018-07-06T18:35:07.000Z,45.50
2018-07-06T18:37:35.944Z,45.90
2018-07-06T18:40:05.704Z,46.70
2018-07-06T18:42:34.624Z,47.20
2018-07-06T18:45:03.656Z,47.80
2018-07-06T18:47:32.811Z,47.90
2018-07-06T18:50:01.983Z,48.90
2018-07-06T18:52:31.048Z,48.90
2018-07-06T18:55:00.424Z,49.20
2018-07-06T18:57:29.561Z,49.30
2018-07-06T19:00:00.015Z,49.10
2018-07-06T19:02:29.752Z,49.00
2018-07-06T19:04:59.779Z,48.90
2018-07-06T19:07:29.658Z,48.90
2018-07-06T19:09:59.059Z,48.90
2018-07-06T19:12:28.798Z,48.80
2018-07-06T19:14:57.860Z,48.30
2018-07-06T19:17:27.016Z,48.40
2018-07-06T19:19:56.068Z,49.00
2018-07-06T19:22:25.767Z,48.60
2018-07-06T19:24:55.178Z,49.00
2018-07-06T19:27:24.560Z,48.90
2018-07-06T19:29:53.913Z,48.70
2018-07-06T19:32:23.024Z,48.50
2018-07-06T19:34:52.350Z,48.00
2018-07-06T19:37:21.473Z,48.60
2018-07-06T19:39:50.629Z,48.00
2018-07-06T19:42:19.731Z,48.30
2018-07-06T19:44:49.213Z,47.30
2018-07-06T19:47:18.393Z,47.60
2018-07-06T19:49:47.328Z,47.60
2018-07-06T19:52:16.282Z,47.90
2018-07-06T19:54:45.180Z,47.40
2018-07-06T19:57:14.113Z,47.40
2018-07-06T19:59:42.980Z,48.30
2018-07-06T20:02:11.959Z,48.90
2018-07-06T20:04:41.765Z,48.70
2018-07-06T20:07:10.758Z,49.10
2018-07-06T20:09:40.396Z,49.20
2018-07-06T20:12:09.368Z,48.80
2018-07-06T20:14:38.325Z,48.30
2018-07-06T20:17:07.541Z,48.60
2018-07-06T20:19:36.680Z,49.10
2018-07-06T20:22:05.699Z,49.10
2018-07-06T20:24:34.714Z,49.70
2018-07-06T20:27:03.809Z,50.50
2018-07-06T20:29:33.139Z,50.70
2018-07-06T20:32:02.812Z,50.90
2018-07-06T20:34:31.808Z,50.60
2018-07-06T20:37:01.101Z,50.90
2018-07-06T20:39:30.344Z,51.70
2018-07-06T20:41:59.460Z,51.40
2018-07-06T20:44:28.581Z,51.80
2018-07-06T20:46:57.543Z,52.30
2018-07-06T20:49:26.802Z,53.00
2018-07-06T20:51:57.501Z,52.80
2018-07-06T20:54:26.595Z,52.60
2018-07-06T20:56:55.688Z,52.70
2018-07-06T20:59:25.567Z,52.70
2018-07-06T21:01:54.468Z,52.00
2018-07-06T21:04:23.445Z,51.90
2018-07-06T21:06:52.309Z,52.40
2018-07-06T21:09:21.168Z,52.40
2018-07-06T21:11:50.133Z,52.40
2018-07-06T21:14:19.304Z,52.90
2018-07-06T21:16:48.324Z,53.80
2018-07-06T21:19:17.608Z,53.20
2018-07-06T21:21:47.031Z,53.60
2018-07-06T21:24:16.380Z,54.20
2018-07-06T21:26:45.502Z,53.80
2018-07-06T21:29:14.737Z,54.40
2018-07-06T21:31:44.099Z,53.90
2018-07-06T21:34:14.031Z,54.20
2018-07-06T21:36:43.068Z,54.20
2018-07-06T21:39:12.896Z,56.10
2018-07-06T21:41:42.088Z,57.00
2018-07-06T21:44:11.837Z,57.50
2018-07-06T21:46:41.168Z,58.70
2018-07-06T21:49:10.344Z,60.20
2018-07-06T21:51:39.503Z,61.10
2018-07-06T21:54:08.934Z,63.40
2018-07-06T21:56:37.972Z,64.30
2018-07-06T21:59:07.064Z,65.20
2018-07-06T22:01:36.949Z,65.40
2018-07-06T22:04:06.758Z,66.20
2018-07-06T22:06:36.081Z,65.40
2018-07-06T22:09:05.816Z,66.60
2018-07-06T22:11:34.700Z,67.40
2018-07-06T22:14:03.721Z,67.80
2018-07-06T22:16:32.601Z,67.50
2018-07-06T22:19:01.517Z,67.70
2018-07-06T22:21:30.484Z,68.80
2018-07-06T22:23:59.325Z,69.20
2018-07-06T22:26:28.147Z,69.90
2018-07-06T22:28:57.013Z,71.00
2018-07-06T22:31:26.192Z,71.40
2018-07-06T22:33:55.300Z,73.20
2018-07-06T22:36:24.240Z,73.80
2018-07-06T22:38:53.348Z,74.30
2018-07-06T22:41:22.472Z,75.40
2018-07-06T22:43:51.771Z,76.10
2018-07-06T22:46:21.069Z,77.00
2018-07-06T22:48:50.816Z,78.00
2018-07-06T22:51:19.939Z,79.00
2018-07-06T22:56:18.032Z,79.60
2018-07-06T22:58:47.115Z,80.80
2018-07-06T23:01:16.136Z,82.20
2018-07-06T23:03:45.705Z,84.40
2018-07-06T23:06:14.944Z,84.70
2018-07-06T23:08:44.099Z,85.10
2018-07-06T23:11:13.351Z,84.60
2018-07-06T23:13:42.487Z,86.40
2018-07-06T23:16:11.587Z,88.30
2018-07-06T23:18:40.733Z,87.20
2018-07-06T23:21:10.059Z,88.40
2018-07-06T23:23:40.061Z,86.80
2018-07-06T23:26:09.420Z,89.80
2018-07-06T23:28:38.485Z,90.20
2018-07-06T23:31:07.326Z,90.00
2018-07-06T23:33:36.228Z,89.00
2018-07-06T23:36:05.356Z,90.00
2018-07-06T23:38:34.232Z,89.40
2018-07-06T23:41:03.076Z,90.00
2018-07-06T23:43:31.950Z,89.80
2018-07-06T23:46:00.786Z,89.80
2018-07-06T23:48:29.762Z,90.60
2018-07-06T23:50:58.951Z,90.00
2018-07-06T23:53:28.119Z,90.00
2018-07-06T23:55:57.862Z,88.80
2018-07-06T23:58:27.029Z,88.30
